Terminal Aerodrome Forecast
Issued by NWS

Home | Current Version | Previous Version | Text Only | Print | Product List | Glossary On
Versions: 1 2 3 4 5 6 7 8 9 10 11 12 13 14 15 16 17 18 19 20 21 22 23 24 25 26 27 28 29 30 31 32 33 34 35 36 37 38 39 40 41 42 43 44 45 46 47 48 49 50
000
FTUS44 KHGX 181504 AAC
TAFIAH
TAF AMD
KIAH 181504Z 1815/1918 20007KT 3SM SHRA BR BKN009 OVC018
     FM181800 19007KT P6SM VCTS SCT025CB BKN045 BKN090
      TEMPO 1819/1823 3SM TSRA BKN025CB BKN035
     FM182300 17008KT P6SM VCSH SCT025 BKN045
     FM190600 18009KT P6SM VCSH SCT015 BKN025
     FM191500 20010KT P6SM VCSH SCT025 BKN120=

USA.gov is the U.S. government's official web portal to all federal, state and local government web resources and services.